Time;durP1;ratioP1;P1;durP2;ratioP2;P2;SDS_P1;SDS_P2;PMS_P1;PMS_P2;Temp;Humidity;BMP_temperature;BMP_pressure;BME280_temperature;BME280_humidity;BME280_pressure;Samples;Min_cycle;Max_cycle;Signal;HPM_P1;HPM_P2
2023/03/27 00:00:00;;;;;;;;;;;7.30;75.90;;;6.68;57.68;100224.72;5011430;28;19948;-86
2023/03/27 00:02:27;;;;;;;;;;;7.30;76.20;;;6.64;57.91;100226.13;5007278;28;19928;-88
2023/03/27 00:04:54;;;;;;;;;;;7.30;76.20;;;6.61;57.67;100244.25;5026371;28;19932;-85
2023/03/27 00:07:21;;;;;;;;;;;7.20;75.80;;;6.61;57.66;100246.88;5011304;28;19932;-85
2023/03/27 00:09:48;;;;;;;;;;;7.20;76.00;;;6.58;57.67;100241.97;5012505;28;19925;-85
2023/03/27 00:12:15;;;;;;;;;;;7.20;76.10;;;6.57;57.44;100242.97;5010495;28;20392;-88
2023/03/27 00:14:44;;;;;;;;;;;7.20;76.10;;;6.53;57.55;100252.31;5022465;28;19925;-86
2023/03/27 00:17:12;;;;;;;;;;;7.10;76.00;;;6.51;57.70;100254.34;5025811;28;20015;-84
2023/03/27 00:19:39;;;;;;;;;;;7.10;76.20;;;6.52;57.88;100263.91;5010495;28;19929;-84
2023/03/27 00:22:06;;;;;;;;;;;7.10;76.80;;;6.49;57.71;100264.28;5008454;28;19940;-85
2023/03/27 00:24:33;;;;;;;;;;;7.10;76.10;;;6.48;57.90;100271.41;5008921;28;20310;-86
2023/03/27 00:27:00;;;;;;;;;;;7.10;76.50;;;6.47;58.07;100279.56;5010172;28;20044;-84
2023/03/27 00:29:27;;;;;;;;;;;7.10;76.50;;;6.45;57.50;100282.41;5010360;28;19926;-87
2023/03/27 00:31:55;;;;;;;;;;;7.10;76.40;;;6.43;58.21;100279.94;5007003;28;20687;-86
2023/03/27 00:34:22;;;;;;;;;;;7.10;76.40;;;6.43;57.74;100281.75;5010809;28;19968;-87
2023/03/27 00:36:50;;;;;;;;;;;7.10;76.40;;;6.40;57.60;100285.63;5007847;28;20008;-84
2023/03/27 00:39:19;;;;;;;;;;;7.00;76.00;;;6.41;57.81;100291.75;5026470;28;20408;-85
2023/03/27 00:41:47;;;;;;;;;;;7.00;76.30;;;6.37;57.97;100293.13;5011657;28;20394;-85
2023/03/27 00:44:24;;;;;;;;;;;7.00;76.40;;;6.36;57.61;100294.13;5026049;28;19925;-86
2023/03/27 00:46:53;;;;;;;;;;;7.00;76.60;;;6.35;57.66;100297.78;5009310;28;19929;-88
2023/03/27 00:49:22;;;;;;;;;;;7.00;76.50;;;6.31;57.83;100297.34;5031837;28;20020;-84
2023/03/27 00:51:51;;;;;;;;;;;6.90;76.40;;;6.32;57.86;100306.09;5008916;28;19925;-86
2023/03/27 00:54:25;;;;;;;;;;;6.90;76.40;;;6.31;57.93;100302.63;5023213;28;19936;-84
2023/03/27 00:56:54;;;;;;;;;;;6.90;76.50;;;6.29;57.80;100307.28;5021509;28;19936;-85
2023/03/27 00:59:23;;;;;;;;;;;6.90;76.30;;;6.28;58.17;100310.94;5024035;28;20302;-85
2023/03/27 01:01:52;;;;;;;;;;;6.90;76.90;;;6.27;58.56;100316.44;5026087;28;19925;-84
2023/03/27 01:04:21;;;;;;;;;;;6.90;77.00;;;6.25;58.12;100314.00;5024483;28;20302;-86
2023/03/27 01:06:52;;;;;;;;;;;6.90;77.10;;;6.23;58.40;100310.69;5024521;28;19987;-88
2023/03/27 01:09:20;;;;;;;;;;;7.00;77.20;;;6.22;58.40;100318.84;5026546;28;20016;-84
2023/03/27 01:11:54;;;;;;;;;;;6.90;77.10;;;6.21;58.72;100322.50;5026103;28;19947;-85
2023/03/27 01:14:30;;;;;;;;;;;6.90;77.20;;;6.19;58.54;100333.25;5009566;28;19929;-84
2023/03/27 01:17:09;;;;;;;;;;;6.80;77.00;;;6.17;58.42;100335.28;5005658;28;19993;-86
2023/03/27 01:20:26;;;;;;;;;;;6.80;77.00;;;6.14;58.05;100339.09;5002519;28;19931;-85
2023/03/27 01:23:15;;;;;;;;;;;6.70;77.00;;;6.10;58.61;100347.59;5021606;28;19940;-87
2023/03/27 01:26:06;;;;;;;;;;;6.70;77.20;;;6.07;58.41;100348.81;5006796;28;19925;-85
2023/03/27 01:28:41;;;;;;;;;;;6.70;77.00;;;6.05;58.04;100348.19;5025587;28;19921;-88
2023/03/27 01:31:22;;;;;;;;;;;6.70;76.90;;;6.05;58.26;100360.56;5017562;28;20005;-87
2023/03/27 01:34:16;;;;;;;;;;;6.70;77.10;;;6.02;58.20;100355.66;5014987;28;20529;-86
2023/03/27 01:37:06;;;;;;;;;;;6.70;77.20;;;5.99;58.50;100356.84;5001354;28;19925;-84
2023/03/27 01:39:43;;;;;;;;;;;6.60;77.40;;;5.97;58.67;100366.78;5025346;28;20024;-84
2023/03/27 01:42:18;;;;;;;;;;;6.60;77.30;;;5.97;58.20;100377.38;5025791;28;19929;-87
2023/03/27 01:44:49;;;;;;;;;;;6.60;77.20;;;5.96;58.09;100377.56;5007599;28;19929;-84
2023/03/27 01:47:22;;;;;;;;;;;6.50;77.20;;;5.93;58.37;100384.88;5023113;28;20079;-85
2023/03/27 01:49:54;;;;;;;;;;;6.50;77.00;;;5.93;58.24;100384.88;5025162;28;19980;-88
2023/03/27 01:52:25;;;;;;;;;;;6.50;77.30;;;5.92;58.57;100388.53;5010551;28;19925;-85
2023/03/27 01:54:57;;;;;;;;;;;6.50;77.30;;;5.90;58.41;100387.00;5024743;28;19928;-85
2023/03/27 01:57:27;;;;;;;;;;;6.50;77.20;;;5.90;58.26;100384.38;5019872;28;19972;-86
2023/03/27 01:59:57;;;;;;;;;;;6.50;77.20;;;5.89;57.88;100383.53;5025281;28;19921;-85
2023/03/27 02:02:27;;;;;;;;;;;6.50;76.80;;;5.89;58.33;100382.72;5008926;28;19925;-86
2023/03/27 02:04:57;;;;;;;;;;;6.50;77.20;;;5.89;58.40;100388.84;5007702;28;20004;-85
2023/03/27 02:07:30;;;;;;;;;;;6.50;77.20;;;5.88;58.09;100387.22;5007387;28;20044;-86
2023/03/27 02:10:01;;;;;;;;;;;6.50;76.80;;;5.86;58.23;100394.53;5024838;28;19931;-85
2023/03/27 02:12:32;;;;;;;;;;;6.50;77.00;;;5.86;58.19;100402.47;5024413;28;20641;-88
2023/03/27 02:15:03;;;;;;;;;;;6.40;77.00;;;5.84;58.37;100415.03;5007630;28;19930;-88
2023/03/27 02:17:32;;;;;;;;;;;6.40;77.00;;;5.82;58.08;100417.06;5007441;28;20008;-87
2023/03/27 02:20:09;;;;;;;;;;;6.40;77.00;;;5.80;58.24;100421.69;5024824;28;19995;-84
2023/03/27 02:22:38;;;;;;;;;;;6.40;77.10;;;5.79;58.42;100435.09;5016877;28;20344;-88
2023/03/27 02:25:28;;;;;;;;;;;6.40;77.30;;;5.77;58.37;100427.34;5024023;28;19925;-88
2023/03/27 02:28:05;;;;;;;;;;;6.40;77.20;;;5.76;58.54;100430.16;5004619;28;20397;-84
2023/03/27 02:30:37;;;;;;;;;;;6.40;77.20;;;5.75;58.55;100444.41;5024066;28;19929;-84
2023/03/27 02:33:13;;;;;;;;;;;6.40;77.20;;;5.73;58.36;100444.59;5023073;28;19927;-85
2023/03/27 02:35:48;;;;;;;;;;;6.30;77.20;;;5.71;58.55;100448.41;5016721;28;19964;-84
2023/03/27 02:38:19;;;;;;;;;;;6.30;77.60;;;5.68;58.62;100445.13;5015404;28;19928;-84
2023/03/27 02:40:58;;;;;;;;;;;6.30;77.30;;;5.68;58.37;100461.00;5006887;28;19921;-84
2023/03/27 02:43:48;;;;;;;;;;;6.30;77.20;;;5.67;58.36;100459.38;5004797;28;20390;-84
2023/03/27 02:46:26;;;;;;;;;;;6.30;77.10;;;5.66;58.36;100464.81;5023387;28;19984;-87
2023/03/27 02:48:56;;;;;;;;;;;6.30;77.20;;;5.64;58.16;100465.00;5017554;28;19928;-84
2023/03/27 02:51:27;;;;;;;;;;;6.30;77.40;;;5.62;58.45;100467.03;5021991;28;19921;-84
2023/03/27 02:53:57;;;;;;;;;;;6.20;77.40;;;5.61;58.66;100470.69;5007636;28;20404;-84
2023/03/27 02:56:30;;;;;;;;;;;6.20;77.40;;;5.56;58.94;100473.03;5023473;28;19970;-85
2023/03/27 02:59:02;;;;;;;;;;;6.20;77.50;;;5.57;58.50;100468.56;5013082;28;19925;-84
2023/03/27 03:01:37;;;;;;;;;;;6.20;77.60;;;5.56;58.87;100470.38;5025451;28;19925;-84
2023/03/27 03:04:20;;;;;;;;;;;6.20;77.60;;;5.53;58.88;100478.66;5028454;28;19932;-84
2023/03/27 03:07:03;;;;;;;;;;;6.20;77.60;;;5.52;58.61;100482.31;5013576;28;19937;-84
2023/03/27 03:09:31;;;;;;;;;;;6.20;77.60;;;5.51;58.89;100491.22;5012505;28;20361;-89
2023/03/27 03:11:59;;;;;;;;;;;6.10;77.80;;;5.49;59.12;100487.94;5015816;28;19979;-87
2023/03/27 03:14:30;;;;;;;;;;;6.10;78.00;;;5.49;59.21;100497.72;5014398;28;20295;-85
2023/03/27 03:16:57;;;;;;;;;;;6.10;78.00;;;5.48;58.98;100502.19;5029933;28;20298;-85
2023/03/27 03:19:24;;;;;;;;;;;6.10;78.00;;;5.47;58.88;100495.25;5029720;28;19928;-85
2023/03/27 03:21:51;;;;;;;;;;;6.10;78.00;;;5.45;59.08;100502.53;5013815;28;19968;-84
2023/03/27 03:24:20;;;;;;;;;;;6.10;78.00;;;5.44;59.14;100506.19;5024105;28;19989;-87
2023/03/27 03:26:49;;;;;;;;;;;6.10;77.90;;;5.43;58.92;100515.13;5013628;28;19972;-83
2023/03/27 03:29:19;;;;;;;;;;;6.10;77.80;;;5.40;58.74;100526.84;5029441;28;19933;-86
2023/03/27 03:32:00;;;;;;;;;;;6.00;77.80;;;5.39;59.23;100527.88;5026249;28;19921;-87
2023/03/27 03:34:29;;;;;;;;;;;6.00;78.00;;;5.38;59.10;100528.06;5030579;28;20008;-84
2023/03/27 03:36:56;;;;;;;;;;;6.00;78.00;;;5.35;59.20;100529.22;5015845;28;19979;-83
2023/03/27 03:39:29;;;;;;;;;;;6.00;78.10;;;5.35;59.03;100531.03;5016607;28;19925;-85
2023/03/27 03:41:57;;;;;;;;;;;6.00;78.20;;;5.34;59.00;100537.31;5029757;28;20040;-85
2023/03/27 03:44:25;;;;;;;;;;;5.90;78.10;;;5.32;59.16;100536.66;5014219;28;20297;-85
2023/03/27 03:46:53;;;;;;;;;;;5.90;78.20;;;5.31;59.45;100538.47;5028750;28;20461;-85
2023/03/27 03:49:21;;;;;;;;;;;5.90;78.40;;;5.29;59.35;100544.97;5029178;28;20064;-84
2023/03/27 03:51:48;;;;;;;;;;;5.90;78.40;;;5.28;59.58;100533.56;5029227;28;19952;-85
2023/03/27 03:54:15;;;;;;;;;;;5.90;78.60;;;5.26;59.62;100550.59;5013931;28;20409;-85
2023/03/27 03:56:43;;;;;;;;;;;5.80;78.40;;;5.26;59.33;100556.69;5029762;28;20635;-85
2023/03/27 03:59:11;;;;;;;;;;;5.80;78.50;;;5.24;59.57;100553.41;5030441;28;19928;-84
2023/03/27 04:01:58;;;;;;;;;;;5.80;78.40;;;5.24;59.09;100563.19;5029779;28;19925;-85
2023/03/27 04:04:29;;;;;;;;;;;5.80;78.40;;;5.22;59.20;100565.16;5030526;28;19961;-86
2023/03/27 04:07:08;;;;;;;;;;;5.80;78.50;;;5.21;59.50;100566.16;5012744;28;20072;-86
2023/03/27 04:09:41;;;;;;;;;;;5.80;78.70;;;5.22;59.35;100575.72;5027822;28;19921;-85
2023/03/27 04:12:27;;;;;;;;;;;5.80;78.60;;;5.20;59.96;100569.78;5033025;22;20377;-77
2023/03/27 04:15:00;;;;;;;;;;;5.80;78.90;;;5.19;59.86;100570.81;5047411;28;20677;-78
2023/03/27 04:17:51;;;;;;;;;;;5.80;78.80;;;5.20;59.70;100577.72;5015137;28;19920;-78
2023/03/27 04:20:19;;;;;;;;;;;5.80;78.90;;;5.18;59.78;100579.75;5049317;28;20011;-78
2023/03/27 04:22:47;;;;;;;;;;;5.80;79.10;;;5.18;60.11;100585.03;5055314;28;20008;-78
2023/03/27 04:25:17;;;;;;;;;;;5.80;79.20;;;5.16;60.19;100582.53;5069796;28;19920;-77
2023/03/27 04:27:45;;;;;;;;;;;5.80;79.40;;;5.18;60.53;100592.94;5069283;28;19924;-77
2023/03/27 04:30:21;;;;;;;;;;;5.80;79.40;;;5.16;60.65;100596.56;5067132;28;19920;-77
2023/03/27 04:33:08;;;;;;;;;;;5.80;79.40;;;5.16;60.24;100593.09;5067510;28;19927;-82
2023/03/27 04:35:45;;;;;;;;;;;5.70;79.40;;;5.16;60.15;100603.69;5069037;28;20388;-82
2023/03/27 04:38:17;;;;;;;;;;;5.80;79.40;;;5.18;60.03;100611.47;5070708;28;19920;-81
2023/03/27 04:40:47;;;;;;;;;;;5.80;79.40;;;5.18;60.17;100611.47;5067797;28;19946;-78
2023/03/27 04:43:16;;;;;;;;;;;5.70;79.50;;;5.17;60.23;100621.19;5068903;28;19920;-80
2023/03/27 04:45:45;;;;;;;;;;;5.80;79.50;;;5.16;60.58;100625.66;5067384;28;19924;-83
2023/03/27 04:48:14;;;;;;;;;;;5.70;79.50;;;5.14;60.44;100622.38;5067341;28;19924;-81
2023/03/27 04:50:42;;;;;;;;;;;5.70;79.40;;;5.14;60.69;100627.66;5068749;28;19944;-79
2023/03/27 04:53:12;;;;;;;;;;;5.70;79.60;;;5.14;60.72;100632.13;5066191;28;19994;-77
2023/03/27 04:55:44;;;;;;;;;;;5.70;79.70;;;5.14;60.53;100626.84;5065783;28;19928;-82
2023/03/27 04:58:12;;;;;;;;;;;5.80;79.80;;;5.13;60.40;100635.78;5069879;28;19920;-77
2023/03/27 05:00:40;;;;;;;;;;;5.70;80.00;;;5.12;60.86;100642.88;5068126;28;19928;-81
2023/03/27 05:03:27;;;;;;;;;;;5.70;80.20;;;5.12;60.98;100642.88;5069782;28;19939;-79
2023/03/27 05:06:07;;;;;;;;;;;5.70;80.30;;;5.13;61.16;100647.16;5064583;28;19925;-79
2023/03/27 05:08:37;;;;;;;;;;;5.70;80.40;;;5.13;61.35;100652.44;5064743;28;19920;-77
2023/03/27 05:11:06;;;;;;;;;;;5.70;80.60;;;5.14;61.58;100647.97;5068236;28;19929;-79
2023/03/27 05:13:40;;;;;;;;;;;5.70;80.80;;;5.13;61.43;100654.28;5069394;28;20389;-78
2023/03/27 05:16:10;;;;;;;;;;;5.70;81.10;;;5.14;61.68;100663.84;5068072;28;19963;-81
2023/03/27 05:18:44;;;;;;;;;;;5.70;81.10;;;5.15;62.10;100657.56;5067587;28;19931;-80
2023/03/27 05:21:12;;;;;;;;;;;5.70;81.30;;;5.16;62.05;100661.84;5065477;28;19921;-82
2023/03/27 05:23:39;;;;;;;;;;;5.70;81.30;;;5.15;61.93;100660.19;5056726;28;20030;-82
2023/03/27 05:26:07;;;;;;;;;;;5.70;81.50;;;5.15;62.14;100665.47;5066901;28;20039;-82
2023/03/27 05:28:46;;;;;;;;;;;5.70;81.60;;;5.16;62.02;100683.00;5065295;28;20351;-79
2023/03/27 05:31:13;;;;;;;;;;;5.70;81.60;;;5.16;62.10;100678.53;5061018;28;19924;-81
2023/03/27 05:34:11;;;;;;;;;;;5.70;81.70;;;5.16;62.29;100689.09;5056575;28;19959;-83
2023/03/27 05:36:40;;;;;;;;;;;5.70;82.00;;;5.17;62.45;100689.91;5066333;28;19931;-80
2023/03/27 05:39:07;;;;;;;;;;;5.80;82.00;;;5.21;62.85;100696.53;5068420;28;19924;-79
2023/03/27 05:41:37;;;;;;;;;;;5.80;82.00;;;5.23;62.89;100691.91;5064445;28;19920;-80
2023/03/27 05:44:04;;;;;;;;;;;5.80;82.00;;;5.26;62.61;100706.59;5070256;28;19928;-80
2023/03/27 05:46:36;;;;;;;;;;;5.80;82.00;;;5.27;62.76;100710.88;5064417;28;19921;-80
2023/03/27 05:49:15;;;;;;;;;;;5.90;82.20;;;5.30;62.93;100708.72;5065384;28;19924;-79
2023/03/27 05:51:44;;;;;;;;;;;5.90;82.30;;;5.28;62.74;100713.38;5067780;28;20640;-79
2023/03/27 05:54:11;;;;;;;;;;;5.80;82.20;;;5.31;63.19;100717.47;5069063;28;19975;-79
2023/03/27 05:56:46;;;;;;;;;;;5.80;82.30;;;5.32;63.06;100724.41;5064669;28;19942;-83
2023/03/27 05:59:13;;;;;;;;;;;5.90;82.20;;;5.33;63.38;100723.44;5053653;28;20018;-81
2023/03/27 06:01:41;;;;;;;;;;;5.90;82.50;;;5.37;62.88;100720.28;5059902;28;19950;-81
2023/03/27 06:04:09;;;;;;;;;;;5.90;82.30;;;5.39;63.00;100728.84;5062049;28;19931;-80
2023/03/27 06:06:54;;;;;;;;;;;6.00;82.50;;;5.42;63.17;100725.06;5067560;28;19924;-81
2023/03/27 06:09:21;;;;;;;;;;;6.00;82.20;;;5.42;62.78;100731.16;5066152;28;20550;-80
2023/03/27 06:12:07;;;;;;;;;;;6.00;82.20;;;5.45;63.22;100729.16;5067628;28;19944;-81
2023/03/27 06:14:38;;;;;;;;;;;6.00;82.30;;;5.48;63.43;100732.31;5065953;28;19924;-80
2023/03/27 06:17:28;;;;;;;;;;;6.10;82.50;;;5.51;63.25;100739.88;5063556;28;19936;-81
2023/03/27 06:20:10;;;;;;;;;;;6.10;82.60;;;5.54;63.05;100739.53;5062769;28;20277;-81
2023/03/27 06:22:42;;;;;;;;;;;6.20;82.40;;;5.58;63.22;100740.03;5062373;28;19920;-78
2023/03/27 06:25:09;;;;;;;;;;;6.20;82.50;;;5.59;63.24;100739.03;5064441;28;19924;-79
2023/03/27 06:27:36;;;;;;;;;;;6.20;82.40;;;5.59;63.13;100741.69;5060371;28;19936;-79
2023/03/27 06:30:06;;;;;;;;;;;6.20;82.40;;;5.63;63.08;100751.75;5068088;28;19924;-80
2023/03/27 06:32:35;;;;;;;;;;;6.30;82.50;;;5.68;63.07;100754.69;5067075;28;19932;-80
2023/03/27 06:35:09;;;;;;;;;;;6.30;82.50;;;5.74;63.53;100757.66;5065536;28;19971;-79
2023/03/27 06:37:50;;;;;;;;;;;6.40;82.70;;;5.81;63.51;100763.91;5066850;28;20361;-79
2023/03/27 06:40:21;;;;;;;;;;;6.40;82.80;;;5.87;63.93;100761.41;5064923;28;19954;-78
2023/03/27 06:42:50;;;;;;;;;;;6.50;83.10;;;5.93;63.79;100776.59;5064485;28;19925;-78
2023/03/27 06:45:30;;;;;;;;;;;6.50;83.10;;;5.97;63.60;100773.63;5065224;28;20546;-77
2023/03/27 06:48:29;;;;;;;;;;;6.60;82.90;;;6.02;63.71;100773.94;5037003;28;19924;-79
2023/03/27 06:50:57;;;;;;;;;;;6.60;82.80;;;6.06;63.43;100768.13;5067404;28;19920;-78
2023/03/27 06:53:25;;;;;;;;;;;6.70;82.70;;;6.13;63.01;100781.47;5061302;28;19928;-76
2023/03/27 06:55:53;;;;;;;;;;;6.80;82.40;;;6.21;63.41;100767.38;5056736;28;20748;-76
2023/03/27 06:58:21;;;;;;;;;;;6.80;82.40;;;6.26;62.88;100779.09;5060064;28;19960;-78
2023/03/27 07:00:49;;;;;;;;;;;6.90;82.00;;;6.32;62.84;100777.56;5056841;28;19928;-77
2023/03/27 07:03:17;;;;;;;;;;;7.00;81.60;;;6.36;62.15;100782.31;5062686;28;20300;-75
2023/03/27 07:06:14;;;;;;;;;;;7.00;81.10;;;6.43;61.84;100783.25;5049475;28;19924;-77
2023/03/27 07:08:48;;;;;;;;;;;7.10;80.90;;;6.51;61.50;100781.56;5062055;28;19924;-78
2023/03/27 07:11:15;;;;;;;;;;;7.10;80.60;;;6.59;61.88;100786.81;5064328;28;19924;-76
2023/03/27 07:13:53;;;;;;;;;;;7.20;81.00;;;6.65;60.82;100802.81;5057931;28;19924;-79
2023/03/27 07:16:28;;;;;;;;;;;7.30;79.70;;;6.74;61.37;100800.13;5062720;28;19928;-77
2023/03/27 07:18:56;;;;;;;;;;;7.40;79.90;;;6.77;61.32;100800.56;5062647;28;20485;-79
2023/03/27 07:21:24;;;;;;;;;;;7.40;79.90;;;6.81;60.23;100807.16;5062868;28;19932;-77
2023/03/27 07:23:53;;;;;;;;;;;7.50;79.20;;;6.84;60.32;100809.47;5062095;28;19932;-76
2023/03/27 07:26:33;;;;;;;;;;;7.50;79.20;;;6.91;60.42;100813.03;5058310;28;20038;-77
2023/03/27 07:29:02;;;;;;;;;;;7.60;79.30;;;6.99;59.80;100821.94;5063958;28;19924;-78
2023/03/27 07:31:29;;;;;;;;;;;7.70;78.60;;;7.07;60.27;100817.38;5059602;28;19935;-78
2023/03/27 07:33:56;;;;;;;;;;;7.80;78.80;;;7.13;59.81;100823.81;5061009;28;20126;-79
2023/03/27 07:36:43;;;;;;;;;;;7.80;78.20;;;7.13;59.12;100829.09;5054535;28;20057;-78
2023/03/27 07:39:12;;;;;;;;;;;7.80;77.50;;;7.13;58.75;100826.47;5062371;28;19932;-77
2023/03/27 07:41:40;;;;;;;;;;;7.80;76.90;;;7.04;57.24;100844.25;5060386;28;20316;-77
2023/03/27 07:44:20;;;;;;;;;;;7.70;75.80;;;6.90;58.38;100843.22;5053452;28;19932;-77
2023/03/27 07:47:08;;;;;;;;;;;7.60;76.90;;;6.84;57.19;100843.09;5062716;28;20010;-77
2023/03/27 07:49:36;;;;;;;;;;;7.60;75.40;;;6.77;57.64;100845.63;5061409;28;19935;-77
2023/03/27 07:52:07;;;;;;;;;;;7.50;76.00;;;6.75;57.90;100841.50;5056411;28;20003;-79
2023/03/27 07:54:42;;;;;;;;;;;7.50;76.20;;;6.75;57.97;100849.47;5058771;28;19978;-82
2023/03/27 07:57:10;;;;;;;;;;;7.50;76.50;;;6.77;58.37;100852.75;5063179;28;19931;-81
2023/03/27 07:59:53;;;;;;;;;;;7.50;76.60;;;6.74;58.44;100853.13;5061918;28;20369;-76
2023/03/27 08:02:30;;;;;;;;;;;7.40;76.60;;;6.73;59.04;100852.28;5057108;28;19974;-79
2023/03/27 08:04:58;;;;;;;;;;;7.40;77.30;;;6.72;58.70;100855.94;5067583;28;19920;-77
2023/03/27 08:07:25;;;;;;;;;;;7.40;76.70;;;6.71;58.77;100862.25;5064100;28;19950;-78
2023/03/27 08:09:58;;;;;;;;;;;7.40;77.20;;;6.69;58.67;100856.31;5059110;28;20467;-77
2023/03/27 08:12:25;;;;;;;;;;;7.40;76.80;;;6.67;58.47;100859.09;5071027;28;20506;-77
2023/03/27 08:14:58;;;;;;;;;;;7.40;77.00;;;6.73;58.60;100862.88;5068855;28;19927;-79
2023/03/27 08:17:27;;;;;;;;;;;7.50;77.30;;;6.79;59.01;100864.03;5069499;28;20376;-76
2023/03/27 08:19:55;;;;;;;;;;;7.50;77.30;;;6.89;59.19;100873.38;5068151;28;20316;-78
2023/03/27 08:22:23;;;;;;;;;;;7.60;78.00;;;7.02;59.43;100877.25;5064843;28;19920;-77
2023/03/27 08:25:12;;;;;;;;;;;7.70;78.20;;;7.12;59.93;100875.19;5038424;28;19927;-76
2023/03/27 08:27:40;;;;;;;;;;;7.80;78.50;;;7.19;59.54;100869.00;5068424;28;19924;-77
2023/03/27 08:30:13;;;;;;;;;;;7.90;78.20;;;7.28;59.42;100869.75;5070213;28;19924;-76
2023/03/27 08:32:41;;;;;;;;;;;7.90;77.90;;;7.39;59.39;100879.09;5066619;28;20035;-77
2023/03/27 08:35:10;;;;;;;;;;;8.10;77.90;;;7.46;58.47;100880.84;5069760;28;19924;-77
2023/03/27 08:37:37;;;;;;;;;;;8.10;77.20;;;7.52;57.60;100889.94;5065841;28;19924;-79
2023/03/27 08:40:27;;;;;;;;;;;8.20;75.60;;;7.51;56.52;100885.59;5072181;28;20001;-79
2023/03/27 08:43:17;;;;;;;;;;;8.20;74.70;;;7.53;57.74;100886.25;5054630;28;20351;-80
2023/03/27 08:45:48;;;;;;;;;;;8.30;76.60;;;7.58;57.44;100888.38;5068299;28;19928;-78
2023/03/27 08:48:24;;;;;;;;;;;8.30;75.20;;;7.56;56.35;100891.19;5069601;28;19963;-77
2023/03/27 08:50:53;;;;;;;;;;;8.30;74.10;;;7.54;56.81;100895.03;5069245;28;19967;-77
2023/03/27 08:53:29;;;;;;;;;;;8.30;74.70;;;7.50;55.65;100891.91;5068866;28;19924;-77
2023/03/27 08:56:00;;;;;;;;;;;8.30;73.30;;;7.43;55.33;100898.97;5062434;28;19924;-79
2023/03/27 08:58:38;;;;;;;;;;;8.20;73.00;;;7.42;56.31;100905.28;5069076;28;19950;-78
2023/03/27 09:01:23;;;;;;;;;;;8.10;74.10;;;7.43;56.34;100904.28;5069857;28;19930;-77
2023/03/27 09:03:55;;;;;;;;;;;8.20;74.30;;;7.48;56.74;100912.53;5067625;28;20460;-78
2023/03/27 09:06:27;;;;;;;;;;;8.20;74.60;;;7.47;55.18;100914.34;5068115;28;20291;-78
2023/03/27 09:09:06;;;;;;;;;;;8.10;72.90;;;7.40;55.61;100918.72;5068755;28;19944;-77
2023/03/27 09:11:48;;;;;;;;;;;8.10;73.50;;;7.42;56.48;100918.56;5064248;28;19927;-78
2023/03/27 09:14:25;;;;;;;;;;;8.10;74.50;;;7.44;56.23;100917.34;5068859;28;20331;-78
2023/03/27 09:16:55;;;;;;;;;;;8.10;74.10;;;7.48;56.20;100931.09;5067062;28;19925;-77
2023/03/27 09:19:35;;;;;;;;;;;8.20;74.10;;;7.55;56.58;100924.03;5068798;28;19927;-78
2023/03/27 09:22:07;;;;;;;;;;;8.20;74.50;;;7.52;55.15;100915.66;5069770;28;19981;-77
2023/03/27 09:25:06;;;;;;;;;;;8.30;72.70;;;7.56;54.57;100930.19;5067528;28;19924;-78
2023/03/27 09:27:53;;;;;;;;;;;8.30;72.40;;;7.57;54.32;100918.59;5066660;28;20689;-79
2023/03/27 09:30:36;;;;;;;;;;;8.30;71.90;;;7.65;54.25;100924.63;5068428;28;19946;-81
2023/03/27 09:33:11;;;;;;;;;;;8.40;71.80;;;7.72;54.85;100914.94;5068037;28;19924;-79
2023/03/27 09:35:42;;;;;;;;;;;8.50;72.40;;;7.71;52.71;100917.75;5068669;28;20385;-79
2023/03/27 09:38:26;;;;;;;;;;;8.40;69.90;;;7.64;51.42;100922.97;5068743;28;19920;-78
2023/03/27 09:40:57;;;;;;;;;;;8.40;68.30;;;7.65;53.31;100924.63;5067865;28;20389;-78
2023/03/27 09:43:31;;;;;;;;;;;8.50;70.60;;;7.75;54.43;100919.03;5068041;28;19924;-76
2023/03/27 09:46:01;;;;;;;;;;;8.50;71.70;;;7.78;54.06;100925.84;5067463;28;19951;-78
2023/03/27 09:48:38;;;;;;;;;;;8.50;71.20;;;7.76;52.79;100931.34;5067907;28;19934;-81
2023/03/27 09:51:36;;;;;;;;;;;8.50;69.70;;;7.75;53.49;100935.78;5057601;28;20008;-79
2023/03/27 09:54:05;;;;;;;;;;;8.50;71.70;;;7.74;54.05;100941.28;5062594;28;19924;-80
2023/03/27 09:56:36;;;;;;;;;;;8.50;71.20;;;7.75;54.50;100938.44;5067105;28;20391;-79
2023/03/27 09:59:20;;;;;;;;;;;8.50;71.70;;;7.77;54.89;100940.94;5067221;28;19925;-79
2023/03/27 10:01:48;;;;;;;;;;;8.50;72.30;;;7.72;53.96;100940.66;5066644;28;20406;-79
2023/03/27 10:04:19;;;;;;;;;;;8.50;71.30;;;7.70;53.39;100954.09;5065498;28;20331;-79
2023/03/27 10:06:56;;;;;;;;;;;8.50;70.70;;;7.62;52.87;100953.38;5063414;28;19920;-77
2023/03/27 10:09:33;;;;;;;;;;;8.40;69.70;;;7.68;53.64;100942.84;5066981;28;19931;-77
2023/03/27 10:14:50;;;;;;;;;;;8.50;69.90;;;7.81;53.01;100942.25;5013003;28;19921;-85
2023/03/27 10:17:26;;;;;;;;;;;8.50;70.20;;;7.90;53.08;100948.25;5021150;28;20275;-89
2023/03/27 10:20:07;;;;;;;;;;;8.60;70.40;;;7.89;53.31;100946.63;4988057;28;19980;-86
2023/03/27 10:22:40;;;;;;;;;;;8.60;70.30;;;7.89;52.84;100955.41;5000257;28;19925;-84
2023/03/27 10:25:15;;;;;;;;;;;8.60;69.90;;;7.95;52.54;100956.50;5001483;28;20502;-82
2023/03/27 10:28:09;;;;;;;;;;;8.70;69.60;;;8.03;52.42;100959.09;4987465;28;19922;-81
2023/03/27 10:30:59;;;;;;;;;;;8.80;69.40;;;8.05;50.77;100959.72;4988455;28;20549;-82
2023/03/27 10:33:35;;;;;;;;;;;8.90;67.00;;;8.04;49.91;100949.28;5003548;28;19932;-81
2023/03/27 10:36:26;;;;;;;;;;;8.70;66.10;;;8.07;50.25;100956.91;4987975;28;19957;-93
2023/03/27 10:38:56;;;;;;;;;;;8.80;66.40;;;8.09;50.48;100957.53;4987172;28;19925;-83
2023/03/27 10:41:34;;;;;;;;;;;8.80;66.40;;;8.12;50.58;100959.84;4979997;28;19964;-79
2023/03/27 10:44:05;;;;;;;;;;;8.80;66.90;;;8.15;50.77;100959.44;4992836;28;19926;-80
2023/03/27 10:46:39;;;;;;;;;;;8.90;67.20;;;8.21;49.81;100969.38;4986068;28;20477;-80
2023/03/27 10:49:18;;;;;;;;;;;8.90;66.00;;;8.22;48.12;100963.84;4997158;28;19933;-79
2023/03/27 10:51:49;;;;;;;;;;;8.90;64.40;;;8.27;49.71;100968.63;4996489;28;20367;-78
2023/03/27 10:54:33;;;;;;;;;;;9.00;65.40;;;8.32;49.86;100968.06;4983282;28;19926;-79
2023/03/27 10:57:02;;;;;;;;;;;9.00;66.00;;;8.37;49.75;100963.88;4988303;28;19921;-79
2023/03/27 10:59:35;;;;;;;;;;;9.10;65.80;;;8.42;48.16;100963.34;4987313;28;19935;-80
2023/03/27 11:02:12;;;;;;;;;;;9.20;64.30;;;8.45;47.12;100966.47;4997481;28;19929;-80
2023/03/27 11:04:44;;;;;;;;;;;9.20;62.60;;;8.46;47.98;100975.25;5007358;28;19929;-80
2023/03/27 11:07:19;;;;;;;;;;;9.20;64.00;;;8.43;47.01;100978.25;4987073;28;20465;-79
2023/03/27 11:09:59;;;;;;;;;;;9.20;62.10;;;8.47;47.99;100961.75;4987655;28;19929;-80
2023/03/27 11:12:33;;;;;;;;;;;9.30;64.20;;;8.50;47.19;100979.19;4988419;28;19921;-80
2023/03/27 11:15:06;;;;;;;;;;;9.30;62.90;;;8.50;47.09;100981.84;4989807;28;19928;-79
2023/03/27 11:17:39;;;;;;;;;;;9.20;62.50;;;8.47;46.96;100984.88;4987352;28;19960;-78
2023/03/27 11:20:21;;;;;;;;;;;9.20;62.10;;;8.41;46.72;101002.38;4990241;28;20008;-79
2023/03/27 11:23:22;;;;;;;;;;;9.20;62.40;;;8.21;50.42;101027.81;4988277;28;19933;-80
2023/03/27 11:26:18;;;;;;;;;;;8.90;66.40;;;7.96;53.93;101043.19;4999796;28;19925;-78
2023/03/27 11:28:52;;;;;;;;;;;8.80;70.50;;;7.74;56.02;101053.63;4992008;28;19945;-77
2023/03/27 11:31:32;;;;;;;;;;;8.50;73.30;;;7.65;57.13;101049.38;4991923;28;20453;-80
2023/03/27 11:34:05;;;;;;;;;;;8.40;74.10;;;7.40;57.85;101047.91;4987286;28;19929;-79
2023/03/27 11:36:41;;;;;;;;;;;8.20;75.20;;;7.35;59.29;101058.22;4988653;28;19946;-79
2023/03/27 11:39:21;;;;;;;;;;;8.10;77.00;;;7.33;59.89;101050.44;4988402;28;20027;-78
2023/03/27 11:41:54;;;;;;;;;;;8.00;77.80;;;7.35;61.70;101042.31;4998639;28;19926;-80
2023/03/27 11:44:23;;;;;;;;;;;8.00;80.00;;;7.30;61.92;101045.47;4991669;28;19961;-80
2023/03/27 11:47:39;;;;;;;;;;;7.90;80.40;;;7.27;62.80;101048.50;4988473;28;19929;-79
2023/03/27 11:50:16;;;;;;;;;;;7.90;81.50;;;7.19;63.31;101036.09;4984103;28;19942;-81
2023/03/27 11:52:53;;;;;;;;;;;7.80;81.80;;;7.18;62.87;101045.06;4990133;28;20838;-79
2023/03/27 11:55:51;;;;;;;;;;;7.80;81.20;;;7.28;64.32;101042.19;4980318;28;19948;-80
2023/03/27 11:58:29;;;;;;;;;;;7.80;83.00;;;7.34;63.51;101052.09;5015483;28;20024;-81